Terminal Aerodrome Forecast
Issued by NWS Portland, OR

Home | Current Version | Previous Version | Text Only | Print | Product List | Glossary On
Versions: 1 2 3 4 5 6 7 8 9 10 11 12 13 14 15 16 17 18 19 20 21 22 23 24 25 26 27 28 29 30 31 32 33 34
000
FTUS46 KPQR 281304 AAA
TAFSLE
TAF AMD
KSLE 281304Z 2813/2912 17003KT 3SM BR SCT015 BKN025 OVC050
      TEMPO 2813/2817 1/2SM FG VV002
     FM281700 17003KT P6SM SCT025 BKN050
     FM290300 VRB03KT P6SM FEW002 SCT050 OVC080
     FM290900 VRB03KT 5SM BR SCT002 BKN080=

USA.gov is the U.S. government's official web portal to all federal, state and local government web resources and services.